sensor_id;sensor_type;location;lat;lon;timestamp;P1;durP1;ratioP1;P2;durP2;ratioP2
351;SDS011;164;50.784;6.496;2023-07-22T00:01:00;6.75;;;5.90;;
351;SDS011;164;50.784;6.496;2023-07-22T00:03:28;8.75;;;7.75;;
351;SDS011;164;50.784;6.496;2023-07-22T00:06:02;6.05;;;5.70;;
351;SDS011;164;50.784;6.496;2023-07-22T00:08:30;16.77;;;15.93;;
351;SDS011;164;50.784;6.496;2023-07-22T00:10:57;26.38;;;25.08;;
351;SDS011;164;50.784;6.496;2023-07-22T00:13:25;10.95;;;6.80;;
351;SDS011;164;50.784;6.496;2023-07-22T00:15:52;8.05;;;6.90;;
351;SDS011;164;50.784;6.496;2023-07-22T00:18:20;6.88;;;6.40;;
351;SDS011;164;50.784;6.496;2023-07-22T00:20:48;27.98;;;21.80;;
351;SDS011;164;50.784;6.496;2023-07-22T00:23:16;6.68;;;6.35;;
351;SDS011;164;50.784;6.496;2023-07-22T00:25:44;6.40;;;6.03;;
351;SDS011;164;50.784;6.496;2023-07-22T00:28:12;7.40;;;6.60;;
351;SDS011;164;50.784;6.496;2023-07-22T00:30:39;7.40;;;6.90;;
351;SDS011;164;50.784;6.496;2023-07-22T00:33:07;9.93;;;5.90;;
351;SDS011;164;50.784;6.496;2023-07-22T00:35:34;7.25;;;6.85;;
351;SDS011;164;50.784;6.496;2023-07-22T00:38:03;6.50;;;6.13;;
351;SDS011;164;50.784;6.496;2023-07-22T00:40:30;6.97;;;6.57;;
351;SDS011;164;50.784;6.496;2023-07-22T00:42:58;7.20;;;6.80;;
351;SDS011;164;50.784;6.496;2023-07-22T00:45:25;7.00;;;6.60;;
351;SDS011;164;50.784;6.496;2023-07-22T00:47:52;7.60;;;5.57;;
351;SDS011;164;50.784;6.496;2023-07-22T00:50:20;7.03;;;6.25;;
351;SDS011;164;50.784;6.496;2023-07-22T00:52:48;7.10;;;6.38;;
351;SDS011;164;50.784;6.496;2023-07-22T00:55:17;7.05;;;6.18;;
351;SDS011;164;50.784;6.496;2023-07-22T00:57:44;6.20;;;5.88;;
351;SDS011;164;50.784;6.496;2023-07-22T01:00:12;7.35;;;6.90;;
351;SDS011;164;50.784;6.496;2023-07-22T01:02:41;5.28;;;4.97;;
351;SDS011;164;50.784;6.496;2023-07-22T01:05:09;5.85;;;5.55;;
351;SDS011;164;50.784;6.496;2023-07-22T01:07:37;6.78;;;6.38;;
351;SDS011;164;50.784;6.496;2023-07-22T01:10:05;6.40;;;6.10;;
351;SDS011;164;50.784;6.496;2023-07-22T01:12:35;7.55;;;5.70;;
351;SDS011;164;50.784;6.496;2023-07-22T01:15:03;7.25;;;6.10;;
351;SDS011;164;50.784;6.496;2023-07-22T01:17:32;7.95;;;7.00;;
351;SDS011;164;50.784;6.496;2023-07-22T01:20:00;6.60;;;6.20;;
351;SDS011;164;50.784;6.496;2023-07-22T01:22:29;7.22;;;6.82;;
351;SDS011;164;50.784;6.496;2023-07-22T01:24:57;7.90;;;7.50;;
351;SDS011;164;50.784;6.496;2023-07-22T01:27:25;6.50;;;6.10;;
351;SDS011;164;50.784;6.496;2023-07-22T01:29:52;5.80;;;5.50;;
351;SDS011;164;50.784;6.496;2023-07-22T01:32:19;6.35;;;5.97;;
351;SDS011;164;50.784;6.496;2023-07-22T01:34:47;5.70;;;5.40;;
351;SDS011;164;50.784;6.496;2023-07-22T01:37:14;6.93;;;6.53;;
351;SDS011;164;50.784;6.496;2023-07-22T01:39:41;6.40;;;5.72;;
351;SDS011;164;50.784;6.496;2023-07-22T01:42:10;5.97;;;5.68;;
351;SDS011;164;50.784;6.496;2023-07-22T01:44:39;7.05;;;6.63;;
351;SDS011;164;50.784;6.496;2023-07-22T01:47:07;6.20;;;5.82;;
351;SDS011;164;50.784;6.496;2023-07-22T01:49:34;7.57;;;5.88;;
351;SDS011;164;50.784;6.496;2023-07-22T01:52:02;6.95;;;6.55;;
351;SDS011;164;50.784;6.496;2023-07-22T01:54:29;6.70;;;5.78;;
351;SDS011;164;50.784;6.496;2023-07-22T01:56:56;7.00;;;6.60;;
351;SDS011;164;50.784;6.496;2023-07-22T01:59:25;6.95;;;6.55;;
351;SDS011;164;50.784;6.496;2023-07-22T02:01:52;7.60;;;6.70;;
351;SDS011;164;50.784;6.496;2023-07-22T02:04:19;6.00;;;5.47;;
351;SDS011;164;50.784;6.496;2023-07-22T02:06:46;6.03;;;5.72;;
351;SDS011;164;50.784;6.496;2023-07-22T02:09:14;6.50;;;6.10;;
351;SDS011;164;50.784;6.496;2023-07-22T02:11:41;6.93;;;5.82;;
351;SDS011;164;50.784;6.496;2023-07-22T02:14:08;7.00;;;6.60;;
351;SDS011;164;50.784;6.496;2023-07-22T02:16:37;6.05;;;5.75;;
351;SDS011;164;50.784;6.496;2023-07-22T02:19:04;6.68;;;6.07;;
351;SDS011;164;50.784;6.496;2023-07-22T02:21:31;6.55;;;5.70;;
351;SDS011;164;50.784;6.496;2023-07-22T02:23:59;6.63;;;6.22;;
351;SDS011;164;50.784;6.496;2023-07-22T02:26:26;8.10;;;6.15;;
351;SDS011;164;50.784;6.496;2023-07-22T02:28:53;6.68;;;6.32;;
351;SDS011;164;50.784;6.496;2023-07-22T02:31:20;7.07;;;6.68;;
351;SDS011;164;50.784;6.496;2023-07-22T02:33:50;6.28;;;5.93;;
351;SDS011;164;50.784;6.496;2023-07-22T02:36:17;6.25;;;5.93;;
351;SDS011;164;50.784;6.496;2023-07-22T02:38:44;7.15;;;6.75;;
351;SDS011;164;50.784;6.496;2023-07-22T02:41:11;7.70;;;7.10;;
351;SDS011;164;50.784;6.496;2023-07-22T02:43:39;6.80;;;6.40;;
351;SDS011;164;50.784;6.496;2023-07-22T02:46:06;7.35;;;6.95;;
351;SDS011;164;50.784;6.496;2023-07-22T02:48:34;5.78;;;5.47;;
351;SDS011;164;50.784;6.496;2023-07-22T02:51:04;6.18;;;5.88;;
351;SDS011;164;50.784;6.496;2023-07-22T02:53:32;8.43;;;7.72;;
351;SDS011;164;50.784;6.496;2023-07-22T02:55:59;6.70;;;6.28;;
351;SDS011;164;50.784;6.496;2023-07-22T02:58:26;6.72;;;6.32;;
351;SDS011;164;50.784;6.496;2023-07-22T03:00:54;7.15;;;6.75;;
351;SDS011;164;50.784;6.496;2023-07-22T03:03:22;7.25;;;6.75;;
351;SDS011;164;50.784;6.496;2023-07-22T03:05:50;8.65;;;6.65;;
351;SDS011;164;50.784;6.496;2023-07-22T03:08:18;6.50;;;6.10;;
351;SDS011;164;50.784;6.496;2023-07-22T03:10:46;8.82;;;7.05;;
351;SDS011;164;50.784;6.496;2023-07-22T03:13:14;7.68;;;7.03;;
351;SDS011;164;50.784;6.496;2023-07-22T03:15:42;6.82;;;6.40;;
351;SDS011;164;50.784;6.496;2023-07-22T03:18:09;8.30;;;5.60;;
351;SDS011;164;50.784;6.496;2023-07-22T03:20:37;7.10;;;6.70;;
351;SDS011;164;50.784;6.496;2023-07-22T03:23:04;6.90;;;6.35;;
351;SDS011;164;50.784;6.496;2023-07-22T03:25:32;7.10;;;6.70;;
351;SDS011;164;50.784;6.496;2023-07-22T03:27:59;7.32;;;6.63;;
351;SDS011;164;50.784;6.496;2023-07-22T03:30:29;8.68;;;6.78;;
351;SDS011;164;50.784;6.496;2023-07-22T03:32:57;7.60;;;7.20;;
351;SDS011;164;50.784;6.496;2023-07-22T03:35:24;9.30;;;6.47;;
351;SDS011;164;50.784;6.496;2023-07-22T03:37:51;7.97;;;6.75;;
351;SDS011;164;50.784;6.496;2023-07-22T03:40:18;7.53;;;7.15;;
351;SDS011;164;50.784;6.496;2023-07-22T03:42:47;6.25;;;5.78;;
351;SDS011;164;50.784;6.496;2023-07-22T03:45:14;8.20;;;7.30;;
351;SDS011;164;50.784;6.496;2023-07-22T03:53:36;7.22;;;6.57;;
351;SDS011;164;50.784;6.496;2023-07-22T03:56:04;7.35;;;6.95;;
351;SDS011;164;50.784;6.496;2023-07-22T03:58:33;6.88;;;6.47;;
351;SDS011;164;50.784;6.496;2023-07-22T04:01:00;8.02;;;7.63;;
351;SDS011;164;50.784;6.496;2023-07-22T04:03:28;6.32;;;5.97;;
351;SDS011;164;50.784;6.496;2023-07-22T04:05:55;7.72;;;7.32;;
351;SDS011;164;50.784;6.496;2023-07-22T04:08:22;8.30;;;7.15;;
351;SDS011;164;50.784;6.496;2023-07-22T04:10:53;7.60;;;7.20;;
351;SDS011;164;50.784;6.496;2023-07-22T04:13:20;7.55;;;7.00;;
351;SDS011;164;50.784;6.496;2023-07-22T04:15:49;6.50;;;6.10;;
351;SDS011;164;50.784;6.496;2023-07-22T04:18:16;9.23;;;7.38;;
351;SDS011;164;50.784;6.496;2023-07-22T04:20:44;7.30;;;6.90;;
351;SDS011;164;50.784;6.496;2023-07-22T04:23:11;6.75;;;6.35;;
351;SDS011;164;50.784;6.496;2023-07-22T04:25:39;6.30;;;5.95;;
351;SDS011;164;50.784;6.496;2023-07-22T04:28:06;7.50;;;7.10;;
351;SDS011;164;50.784;6.496;2023-07-22T04:30:34;7.72;;;7.40;;
351;SDS011;164;50.784;6.496;2023-07-22T04:33:03;6.97;;;6.57;;
351;SDS011;164;50.784;6.496;2023-07-22T04:35:31;7.15;;;6.75;;
351;SDS011;164;50.784;6.496;2023-07-22T04:37:58;8.30;;;7.85;;
351;SDS011;164;50.784;6.496;2023-07-22T04:40:25;8.75;;;8.13;;
351;SDS011;164;50.784;6.496;2023-07-22T04:42:53;6.97;;;6.57;;
351;SDS011;164;50.784;6.496;2023-07-22T04:45:20;7.20;;;6.80;;
351;SDS011;164;50.784;6.496;2023-07-22T04:47:48;7.28;;;6.90;;
351;SDS011;164;50.784;6.496;2023-07-22T04:50:18;7.40;;;7.00;;
351;SDS011;164;50.784;6.496;2023-07-22T04:52:46;7.82;;;7.43;;
351;SDS011;164;50.784;6.496;2023-07-22T04:55:14;8.63;;;7.45;;
351;SDS011;164;50.784;6.496;2023-07-22T04:57:41;7.38;;;6.97;;
351;SDS011;164;50.784;6.496;2023-07-22T05:00:10;8.27;;;6.95;;
351;SDS011;164;50.784;6.496;2023-07-22T05:02:40;7.10;;;6.70;;
351;SDS011;164;50.784;6.496;2023-07-22T05:05:08;7.65;;;7.25;;
351;SDS011;164;50.784;6.496;2023-07-22T05:07:37;7.05;;;6.65;;
351;SDS011;164;50.784;6.496;2023-07-22T05:10:04;6.65;;;6.25;;
351;SDS011;164;50.784;6.496;2023-07-22T05:12:32;6.93;;;6.53;;
351;SDS011;164;50.784;6.496;2023-07-22T05:15:00;7.00;;;6.60;;
351;SDS011;164;50.784;6.496;2023-07-22T05:17:27;8.27;;;7.10;;
351;SDS011;164;50.784;6.496;2023-07-22T05:19:56;7.55;;;7.20;;
351;SDS011;164;50.784;6.496;2023-07-22T05:22:24;6.80;;;6.40;;
351;SDS011;164;50.784;6.496;2023-07-22T05:24:53;6.13;;;5.80;;
351;SDS011;164;50.784;6.496;2023-07-22T05:27:21;7.03;;;5.90;;
351;SDS011;164;50.784;6.496;2023-07-22T05:29:49;6.70;;;6.30;;
351;SDS011;164;50.784;6.496;2023-07-22T05:32:16;8.85;;;6.90;;
351;SDS011;164;50.784;6.496;2023-07-22T05:34:43;6.22;;;5.90;;
351;SDS011;164;50.784;6.496;2023-07-22T05:37:10;5.75;;;5.45;;
351;SDS011;164;50.784;6.496;2023-07-22T05:39:38;6.10;;;5.80;;
351;SDS011;164;50.784;6.496;2023-07-22T05:42:06;6.93;;;5.72;;
351;SDS011;164;50.784;6.496;2023-07-22T05:44:33;5.45;;;5.15;;
351;SDS011;164;50.784;6.496;2023-07-22T05:47:01;6.72;;;6.32;;
351;SDS011;164;50.784;6.496;2023-07-22T05:49:28;6.55;;;5.60;;
351;SDS011;164;50.784;6.496;2023-07-22T05:51:55;6.18;;;5.00;;
351;SDS011;164;50.784;6.496;2023-07-22T05:54:23;6.70;;;5.72;;
351;SDS011;164;50.784;6.496;2023-07-22T05:56:50;6.93;;;6.53;;
351;SDS011;164;50.784;6.496;2023-07-22T05:59:20;6.95;;;5.70;;
351;SDS011;164;50.784;6.496;2023-07-22T06:01:47;7.55;;;6.45;;
351;SDS011;164;50.784;6.496;2023-07-22T06:04:14;5.82;;;5.53;;
351;SDS011;164;50.784;6.496;2023-07-22T06:06:41;6.72;;;5.63;;
351;SDS011;164;50.784;6.496;2023-07-22T06:09:09;4.53;;;4.22;;
351;SDS011;164;50.784;6.496;2023-07-22T06:11:36;5.90;;;5.65;;
351;SDS011;164;50.784;6.496;2023-07-22T06:14:03;7.63;;;5.68;;
351;SDS011;164;50.784;6.496;2023-07-22T06:16:34;6.20;;;5.53;;
351;SDS011;164;50.784;6.496;2023-07-22T06:19:02;5.82;;;5.55;;
351;SDS011;164;50.784;6.496;2023-07-22T06:21:30;5.55;;;5.25;;
351;SDS011;164;50.784;6.496;2023-07-22T06:23:57;6.57;;;5.63;;
351;SDS011;164;50.784;6.496;2023-07-22T06:26:24;5.55;;;5.25;;
351;SDS011;164;50.784;6.496;2023-07-22T06:28:51;6.03;;;5.45;;
351;SDS011;164;50.784;6.496;2023-07-22T06:31:19;6.45;;;6.07;;
351;SDS011;164;50.784;6.496;2023-07-22T06:33:48;5.90;;;5.60;;
351;SDS011;164;50.784;6.496;2023-07-22T06:36:15;6.55;;;5.88;;
351;SDS011;164;50.784;6.496;2023-07-22T06:38:42;5.30;;;5.00;;
351;SDS011;164;50.784;6.496;2023-07-22T06:41:10;4.93;;;4.63;;
351;SDS011;164;50.784;6.496;2023-07-22T06:43:37;5.22;;;4.93;;
351;SDS011;164;50.784;6.496;2023-07-22T06:46:05;5.70;;;5.25;;
351;SDS011;164;50.784;6.496;2023-07-22T06:48:32;5.32;;;5.00;;
351;SDS011;164;50.784;6.496;2023-07-22T06:51:00;7.30;;;5.63;;
351;SDS011;164;50.784;6.496;2023-07-22T06:53:28;7.28;;;5.50;;
351;SDS011;164;50.784;6.496;2023-07-22T06:55:56;7.32;;;6.47;;
351;SDS011;164;50.784;6.496;2023-07-22T06:58:23;6.60;;;5.30;;
351;SDS011;164;50.784;6.496;2023-07-22T07:00:52;5.78;;;5.47;;
351;SDS011;164;50.784;6.496;2023-07-22T07:03:20;5.82;;;5.53;;
351;SDS011;164;50.784;6.496;2023-07-22T07:05:51;6.10;;;5.82;;
351;SDS011;164;50.784;6.496;2023-07-22T07:08:20;5.30;;;5.00;;
351;SDS011;164;50.784;6.496;2023-07-22T07:10:47;6.15;;;5.80;;
351;SDS011;164;50.784;6.496;2023-07-22T07:13:14;5.72;;;5.43;;
351;SDS011;164;50.784;6.496;2023-07-22T07:15:45;6.20;;;5.82;;
351;SDS011;164;50.784;6.496;2023-07-22T07:18:14;6.50;;;6.10;;
351;SDS011;164;50.784;6.496;2023-07-22T07:20:41;5.80;;;5.50;;
351;SDS011;164;50.784;6.496;2023-07-22T07:23:08;5.90;;;4.90;;
351;SDS011;164;50.784;6.496;2023-07-22T07:25:37;5.93;;;5.63;;
351;SDS011;164;50.784;6.496;2023-07-22T07:28:04;5.18;;;4.88;;
351;SDS011;164;50.784;6.496;2023-07-22T07:30:31;5.18;;;4.88;;
351;SDS011;164;50.784;6.496;2023-07-22T07:32:58;5.20;;;4.90;;
351;SDS011;164;50.784;6.496;2023-07-22T07:35:26;5.22;;;4.40;;
351;SDS011;164;50.784;6.496;2023-07-22T07:37:53;4.75;;;4.20;;
351;SDS011;164;50.784;6.496;2023-07-22T07:40:20;4.28;;;4.00;;
351;SDS011;164;50.784;6.496;2023-07-22T07:42:48;4.90;;;4.60;;
351;SDS011;164;50.784;6.496;2023-07-22T07:45:17;6.10;;;5.70;;
351;SDS011;164;50.784;6.496;2023-07-22T07:47:45;5.82;;;5.45;;
351;SDS011;164;50.784;6.496;2023-07-22T07:50:12;5.38;;;5.07;;
351;SDS011;164;50.784;6.496;2023-07-22T07:52:40;4.75;;;4.45;;
351;SDS011;164;50.784;6.496;2023-07-22T07:55:07;4.85;;;4.50;;
351;SDS011;164;50.784;6.496;2023-07-22T07:57:34;4.57;;;4.28;;
351;SDS011;164;50.784;6.496;2023-07-22T08:00:03;6.68;;;5.28;;
351;SDS011;164;50.784;6.496;2023-07-22T08:02:33;4.72;;;4.43;;
351;SDS011;164;50.784;6.496;2023-07-22T08:05:01;3.47;;;3.28;;
351;SDS011;164;50.784;6.496;2023-07-22T08:07:28;3.53;;;3.25;;
351;SDS011;164;50.784;6.496;2023-07-22T08:09:55;4.05;;;3.83;;
351;SDS011;164;50.784;6.496;2023-07-22T08:12:23;5.13;;;3.90;;
351;SDS011;164;50.784;6.496;2023-07-22T08:14:51;4.90;;;3.75;;
351;SDS011;164;50.784;6.496;2023-07-22T08:17:20;3.97;;;3.80;;
351;SDS011;164;50.784;6.496;2023-07-22T08:19:47;3.53;;;3.30;;
351;SDS011;164;50.784;6.496;2023-07-22T08:22:15;4.53;;;3.50;;
351;SDS011;164;50.784;6.496;2023-07-22T08:24:42;3.78;;;3.60;;
351;SDS011;164;50.784;6.496;2023-07-22T08:27:10;4.68;;;3.10;;
351;SDS011;164;50.784;6.496;2023-07-22T08:29:37;3.35;;;3.15;;
351;SDS011;164;50.784;6.496;2023-07-22T08:32:04;3.58;;;3.28;;
351;SDS011;164;50.784;6.496;2023-07-22T08:34:33;3.08;;;2.88;;
351;SDS011;164;50.784;6.496;2023-07-22T08:37:00;3.90;;;2.90;;
351;SDS011;164;50.784;6.496;2023-07-22T08:39:28;3.80;;;2.65;;
351;SDS011;164;50.784;6.496;2023-07-22T08:41:55;3.67;;;3.47;;
351;SDS011;164;50.784;6.496;2023-07-22T08:44:23;3.10;;;2.90;;
351;SDS011;164;50.784;6.496;2023-07-22T08:46:53;2.95;;;2.75;;
351;SDS011;164;50.784;6.496;2023-07-22T08:49:23;3.17;;;2.97;;
351;SDS011;164;50.784;6.496;2023-07-22T08:51:51;3.22;;;2.97;;
351;SDS011;164;50.784;6.496;2023-07-22T08:54:20;5.32;;;3.03;;
351;SDS011;164;50.784;6.496;2023-07-22T08:56:48;3.40;;;3.05;;
351;SDS011;164;50.784;6.496;2023-07-22T08:59:16;3.50;;;3.15;;
351;SDS011;164;50.784;6.496;2023-07-22T09:01:44;4.05;;;3.85;;
351;SDS011;164;50.784;6.496;2023-07-22T09:04:11;2.85;;;2.65;;
351;SDS011;164;50.784;6.496;2023-07-22T09:06:38;3.42;;;3.22;;
351;SDS011;164;50.784;6.496;2023-07-22T09:09:07;2.33;;;2.13;;
351;SDS011;164;50.784;6.496;2023-07-22T09:11:36;3.08;;;2.88;;
351;SDS011;164;50.784;6.496;2023-07-22T09:14:04;2.55;;;2.42;;
351;SDS011;164;50.784;6.496;2023-07-22T09:16:31;2.70;;;2.50;;
351;SDS011;164;50.784;6.496;2023-07-22T09:18:59;2.92;;;2.72;;
351;SDS011;164;50.784;6.496;2023-07-22T09:21:26;2.58;;;2.38;;
351;SDS011;164;50.784;6.496;2023-07-22T09:23:53;3.20;;;2.47;;
351;SDS011;164;50.784;6.496;2023-07-22T09:26:22;3.20;;;2.55;;
351;SDS011;164;50.784;6.496;2023-07-22T09:28:50;2.75;;;2.55;;
351;SDS011;164;50.784;6.496;2023-07-22T09:31:17;2.38;;;2.10;;
351;SDS011;164;50.784;6.496;2023-07-22T09:33:44;3.13;;;1.95;;
351;SDS011;164;50.784;6.496;2023-07-22T09:36:12;2.67;;;2.47;;
351;SDS011;164;50.784;6.496;2023-07-22T09:38:39;4.25;;;2.30;;
351;SDS011;164;50.784;6.496;2023-07-22T09:41:07;2.85;;;2.65;;
351;SDS011;164;50.784;6.496;2023-07-22T09:43:39;2.60;;;2.10;;
351;SDS011;164;50.784;6.496;2023-07-22T09:46:07;3.15;;;2.95;;
351;SDS011;164;50.784;6.496;2023-07-22T09:48:41;3.17;;;2.97;;
351;SDS011;164;50.784;6.496;2023-07-22T09:51:12;2.72;;;2.53;;
351;SDS011;164;50.784;6.496;2023-07-22T09:53:44;3.10;;;2.90;;
351;SDS011;164;50.784;6.496;2023-07-22T09:56:11;2.65;;;2.45;;
351;SDS011;164;50.784;6.496;2023-07-22T09:58:40;2.92;;;2.72;;
351;SDS011;164;50.784;6.496;2023-07-22T10:01:07;2.90;;;2.40;;
351;SDS011;164;50.784;6.496;2023-07-22T10:03:34;3.35;;;3.15;;
351;SDS011;164;50.784;6.496;2023-07-22T10:06:02;4.25;;;2.70;;
351;SDS011;164;50.784;6.496;2023-07-22T10:08:31;2.95;;;2.75;;
351;SDS011;164;50.784;6.496;2023-07-22T10:11:01;2.50;;;2.30;;
351;SDS011;164;50.784;6.496;2023-07-22T10:13:30;2.78;;;2.30;;
351;SDS011;164;50.784;6.496;2023-07-22T10:15:59;3.00;;;2.72;;
351;SDS011;164;50.784;6.496;2023-07-22T10:18:27;2.70;;;2.50;;
351;SDS011;164;50.784;6.496;2023-07-22T10:20:56;2.47;;;2.28;;
351;SDS011;164;50.784;6.496;2023-07-22T10:23:25;2.70;;;2.50;;
351;SDS011;164;50.784;6.496;2023-07-22T10:25:52;2.28;;;2.08;;
351;SDS011;164;50.784;6.496;2023-07-22T10:28:21;2.83;;;2.63;;
351;SDS011;164;50.784;6.496;2023-07-22T10:30:49;3.13;;;2.65;;
351;SDS011;164;50.784;6.496;2023-07-22T10:33:17;2.58;;;2.38;;
351;SDS011;164;50.784;6.496;2023-07-22T10:36:01;2.80;;;2.60;;
351;SDS011;164;50.784;6.496;2023-07-22T10:38:28;7.22;;;2.78;;
351;SDS011;164;50.784;6.496;2023-07-22T10:40:56;3.22;;;3.10;;
351;SDS011;164;50.784;6.496;2023-07-22T10:43:24;3.65;;;3.42;;
351;SDS011;164;50.784;6.496;2023-07-22T10:45:52;3.55;;;2.95;;
351;SDS011;164;50.784;6.496;2023-07-22T10:48:22;2.97;;;2.80;;
351;SDS011;164;50.784;6.496;2023-07-22T10:50:50;2.78;;;2.60;;
351;SDS011;164;50.784;6.496;2023-07-22T10:53:20;2.90;;;2.75;;
351;SDS011;164;50.784;6.496;2023-07-22T10:56:07;3.58;;;2.55;;
351;SDS011;164;50.784;6.496;2023-07-22T10:58:57;2.35;;;2.20;;
351;SDS011;164;50.784;6.496;2023-07-22T11:01:30;2.55;;;2.38;;
351;SDS011;164;50.784;6.496;2023-07-22T11:04:09;3.20;;;2.78;;
351;SDS011;164;50.784;6.496;2023-07-22T11:06:38;3.13;;;2.70;;
351;SDS011;164;50.784;6.496;2023-07-22T11:09:06;4.72;;;1.67;;
351;SDS011;164;50.784;6.496;2023-07-22T11:11:35;3.70;;;3.55;;
351;SDS011;164;50.784;6.496;2023-07-22T11:14:15;3.50;;;3.30;;
351;SDS011;164;50.784;6.496;2023-07-22T11:16:43;7.47;;;7.07;;
351;SDS011;164;50.784;6.496;2023-07-22T11:19:13;2.00;;;1.70;;
351;SDS011;164;50.784;6.496;2023-07-22T11:21:41;2.33;;;1.98;;
351;SDS011;164;50.784;6.496;2023-07-22T11:24:08;1.98;;;1.92;;
351;SDS011;164;50.784;6.496;2023-07-22T11:26:35;1.70;;;1.50;;
351;SDS011;164;50.784;6.496;2023-07-22T11:29:04;2.33;;;2.13;;
351;SDS011;164;50.784;6.496;2023-07-22T11:31:31;1.63;;;1.60;;
351;SDS011;164;50.784;6.496;2023-07-22T11:33:59;2.15;;;1.70;;
351;SDS011;164;50.784;6.496;2023-07-22T11:36:28;2.05;;;1.85;;
351;SDS011;164;50.784;6.496;2023-07-22T11:39:00;2.25;;;2.10;;
351;SDS011;164;50.784;6.496;2023-07-22T11:41:28;2.20;;;2.00;;
351;SDS011;164;50.784;6.496;2023-07-22T11:43:56;2.38;;;2.25;;
351;SDS011;164;50.784;6.496;2023-07-22T11:46:24;2.50;;;2.13;;
351;SDS011;164;50.784;6.496;2023-07-22T11:48:51;3.95;;;2.83;;
351;SDS011;164;50.784;6.496;2023-07-22T11:51:19;3.45;;;2.20;;
351;SDS011;164;50.784;6.496;2023-07-22T11:53:48;2.60;;;2.35;;
351;SDS011;164;50.784;6.496;2023-07-22T11:56:20;2.53;;;2.33;;
351;SDS011;164;50.784;6.496;2023-07-22T11:58:50;2.45;;;2.30;;
351;SDS011;164;50.784;6.496;2023-07-22T12:01:18;2.35;;;2.20;;
351;SDS011;164;50.784;6.496;2023-07-22T12:03:45;2.22;;;2.08;;
351;SDS011;164;50.784;6.496;2023-07-22T12:06:13;2.50;;;2.30;;
351;SDS011;164;50.784;6.496;2023-07-22T12:08:43;2.90;;;2.70;;
351;SDS011;164;50.784;6.496;2023-07-22T12:11:19;2.40;;;2.20;;
351;SDS011;164;50.784;6.496;2023-07-22T12:13:46;1.77;;;1.70;;
351;SDS011;164;50.784;6.496;2023-07-22T12:16:20;2.70;;;2.55;;
351;SDS011;164;50.784;6.496;2023-07-22T12:18:48;2.10;;;1.92;;
351;SDS011;164;50.784;6.496;2023-07-22T12:21:15;2.25;;;2.08;;
351;SDS011;164;50.784;6.496;2023-07-22T12:23:43;2.90;;;2.70;;
351;SDS011;164;50.784;6.496;2023-07-22T12:26:10;1.83;;;1.75;;
351;SDS011;164;50.784;6.496;2023-07-22T12:28:39;3.85;;;2.70;;
351;SDS011;164;50.784;6.496;2023-07-22T12:31:06;2.25;;;2.08;;
351;SDS011;164;50.784;6.496;2023-07-22T12:33:34;4.15;;;2.85;;
351;SDS011;164;50.784;6.496;2023-07-22T12:36:01;2.45;;;2.25;;
351;SDS011;164;50.784;6.496;2023-07-22T12:38:29;3.03;;;2.83;;
351;SDS011;164;50.784;6.496;2023-07-22T12:40:56;2.95;;;2.80;;
351;SDS011;164;50.784;6.496;2023-07-22T12:43:23;2.50;;;2.00;;
351;SDS011;164;50.784;6.496;2023-07-22T12:45:52;2.67;;;2.47;;
351;SDS011;164;50.784;6.496;2023-07-22T12:48:19;1.83;;;1.73;;
351;SDS011;164;50.784;6.496;2023-07-22T12:50:46;3.38;;;2.75;;
351;SDS011;164;50.784;6.496;2023-07-22T12:53:13;3.13;;;2.70;;
351;SDS011;164;50.784;6.496;2023-07-22T12:55:40;2.95;;;2.75;;
351;SDS011;164;50.784;6.496;2023-07-22T12:58:08;2.90;;;2.70;;
351;SDS011;164;50.784;6.496;2023-07-22T13:00:35;2.03;;;1.92;;
351;SDS011;164;50.784;6.496;2023-07-22T13:03:04;3.20;;;2.70;;
351;SDS011;164;50.784;6.496;2023-07-22T13:05:32;3.05;;;2.63;;
351;SDS011;164;50.784;6.496;2023-07-22T13:07:59;2.75;;;2.55;;
351;SDS011;164;50.784;6.496;2023-07-22T13:10:32;2.88;;;2.67;;
351;SDS011;164;50.784;6.496;2023-07-22T13:13:02;2.85;;;2.65;;
351;SDS011;164;50.784;6.496;2023-07-22T13:15:30;3.03;;;2.85;;
351;SDS011;164;50.784;6.496;2023-07-22T13:17:57;2.83;;;2.63;;
351;SDS011;164;50.784;6.496;2023-07-22T13:20:26;2.83;;;2.63;;
351;SDS011;164;50.784;6.496;2023-07-22T13:22:54;2.70;;;2.53;;
351;SDS011;164;50.784;6.496;2023-07-22T13:25:21;4.05;;;2.85;;
351;SDS011;164;50.784;6.496;2023-07-22T13:27:49;3.00;;;2.80;;
351;SDS011;164;50.784;6.496;2023-07-22T13:30:17;4.05;;;2.90;;
351;SDS011;164;50.784;6.496;2023-07-22T13:32:44;3.45;;;3.25;;
351;SDS011;164;50.784;6.496;2023-07-22T13:35:11;6.70;;;3.13;;
351;SDS011;164;50.784;6.496;2023-07-22T13:37:40;2.93;;;2.77;;
351;SDS011;164;50.784;6.496;2023-07-22T13:40:08;3.40;;;3.23;;
351;SDS011;164;50.784;6.496;2023-07-22T13:42:37;2.87;;;2.57;;
351;SDS011;164;50.784;6.496;2023-07-22T13:45:05;3.20;;;3.00;;
351;SDS011;164;50.784;6.496;2023-07-22T13:47:32;3.37;;;2.57;;
351;SDS011;164;50.784;6.496;2023-07-22T13:50:00;3.10;;;2.90;;
351;SDS011;164;50.784;6.496;2023-07-22T13:52:28;2.78;;;2.58;;
351;SDS011;164;50.784;6.496;2023-07-22T13:54:57;6.30;;;2.72;;
351;SDS011;164;50.784;6.496;2023-07-22T13:57:24;4.10;;;2.67;;
351;SDS011;164;50.784;6.496;2023-07-22T13:59:52;3.10;;;2.90;;
351;SDS011;164;50.784;6.496;2023-07-22T14:02:19;3.23;;;3.00;;
351;SDS011;164;50.784;6.496;2023-07-22T14:04:46;2.90;;;2.70;;
351;SDS011;164;50.784;6.496;2023-07-22T14:07:13;2.90;;;2.80;;
351;SDS011;164;50.784;6.496;2023-07-22T14:09:41;3.20;;;3.00;;
351;SDS011;164;50.784;6.496;2023-07-22T14:12:10;6.00;;;3.30;;
351;SDS011;164;50.784;6.496;2023-07-22T14:14:37;2.80;;;2.60;;
351;SDS011;164;50.784;6.496;2023-07-22T14:17:04;5.50;;;3.57;;
351;SDS011;164;50.784;6.496;2023-07-22T14:19:32;3.00;;;2.80;;
351;SDS011;164;50.784;6.496;2023-07-22T14:22:00;3.10;;;2.90;;
351;SDS011;164;50.784;6.496;2023-07-22T14:24:27;2.83;;;2.53;;
351;SDS011;164;50.784;6.496;2023-07-22T14:26:54;6.60;;;3.70;;
351;SDS011;164;50.784;6.496;2023-07-22T14:29:23;3.57;;;2.70;;
351;SDS011;164;50.784;6.496;2023-07-22T14:31:51;3.43;;;3.23;;
351;SDS011;164;50.784;6.496;2023-07-22T14:34:18;3.87;;;2.93;;
351;SDS011;164;50.784;6.496;2023-07-22T14:36:45;4.00;;;3.10;;
351;SDS011;164;50.784;6.496;2023-07-22T14:39:12;4.07;;;3.13;;
351;SDS011;164;50.784;6.496;2023-07-22T14:41:40;3.75;;;2.70;;
351;SDS011;164;50.784;6.496;2023-07-22T14:44:08;4.03;;;2.83;;
351;SDS011;164;50.784;6.496;2023-07-22T14:46:37;2.83;;;2.63;;
351;SDS011;164;50.784;6.496;2023-07-22T14:49:04;2.60;;;2.40;;
351;SDS011;164;50.784;6.496;2023-07-22T14:51:34;3.07;;;2.73;;
351;SDS011;164;50.784;6.496;2023-07-22T14:54:01;2.60;;;2.40;;
351;SDS011;164;50.784;6.496;2023-07-22T14:56:29;4.00;;;3.47;;
351;SDS011;164;50.784;6.496;2023-07-22T14:58:56;2.30;;;2.13;;
351;SDS011;164;50.784;6.496;2023-07-22T15:01:23;2.73;;;2.40;;
351;SDS011;164;50.784;6.496;2023-07-22T15:03:52;2.27;;;2.07;;
351;SDS011;164;50.784;6.496;2023-07-22T15:06:20;3.00;;;2.40;;
351;SDS011;164;50.784;6.496;2023-07-22T15:08:48;3.40;;;2.73;;
351;SDS011;164;50.784;6.496;2023-07-22T15:11:15;3.33;;;2.50;;
351;SDS011;164;50.784;6.496;2023-07-22T15:13:42;2.57;;;1.90;;
351;SDS011;164;50.784;6.496;2023-07-22T15:16:09;5.20;;;2.93;;
351;SDS011;164;50.784;6.496;2023-07-22T15:18:37;2.50;;;2.20;;
351;SDS011;164;50.784;6.496;2023-07-22T15:21:06;3.20;;;2.97;;
351;SDS011;164;50.784;6.496;2023-07-22T15:23:33;3.77;;;2.90;;
351;SDS011;164;50.784;6.496;2023-07-22T15:26:00;3.60;;;2.83;;
351;SDS011;164;50.784;6.496;2023-07-22T15:28:27;3.20;;;3.07;;
351;SDS011;164;50.784;6.496;2023-07-22T15:30:55;3.33;;;3.13;;
351;SDS011;164;50.784;6.496;2023-07-22T15:33:22;3.40;;;2.90;;
351;SDS011;164;50.784;6.496;2023-07-22T15:35:50;2.80;;;2.33;;
351;SDS011;164;50.784;6.496;2023-07-22T15:38:19;2.40;;;2.27;;
351;SDS011;164;50.784;6.496;2023-07-22T15:40:47;4.27;;;2.83;;
351;SDS011;164;50.784;6.496;2023-07-22T15:43:14;4.53;;;3.70;;
351;SDS011;164;50.784;6.496;2023-07-22T15:45:42;2.20;;;2.03;;
351;SDS011;164;50.784;6.496;2023-07-22T15:48:10;4.60;;;2.80;;
351;SDS011;164;50.784;6.496;2023-07-22T15:50:37;6.63;;;2.93;;
351;SDS011;164;50.784;6.496;2023-07-22T15:53:04;2.50;;;2.33;;
351;SDS011;164;50.784;6.496;2023-07-22T15:55:32;3.90;;;2.70;;